sensor_id;sensor_type;location;lat;lon;timestamp;P1;P2;P0
61873;PMS5003;49692;55.052;73.310;2022-10-18T00:01:04;9.25;6.25;4.00
61873;PMS5003;49692;55.052;73.310;2022-10-18T00:03:34;13.50;11.50;9.00
61873;PMS5003;49692;55.052;73.310;2022-10-18T00:06:02;11.50;7.00;4.00
61873;PMS5003;49692;55.052;73.310;2022-10-18T00:08:30;11.50;5.25;4.00
61873;PMS5003;49692;55.052;73.310;2022-10-18T00:11:00;15.75;8.50;6.00
61873;PMS5003;49692;55.052;73.310;2022-10-18T00:13:27;19.75;10.00;6.75
61873;PMS5003;49692;55.052;73.310;2022-10-18T00:15:59;12.25;9.00;6.00
61873;PMS5003;49692;55.052;73.310;2022-10-18T00:18:28;15.00;7.50;6.25
61873;PMS5003;49692;55.052;73.310;2022-10-18T00:21:06;16.00;8.25;6.00
61873;PMS5003;49692;55.052;73.310;2022-10-18T00:23:38;9.25;7.50;6.00
61873;PMS5003;49692;55.052;73.310;2022-10-18T00:28:40;13.00;9.00;6.75
61873;PMS5003;49692;55.052;73.310;2022-10-18T00:31:17;18.00;13.50;9.00
61873;PMS5003;49692;55.052;73.310;2022-10-18T00:33:49;16.00;11.00;8.25
61873;PMS5003;49692;55.052;73.310;2022-10-18T00:36:22;26.25;16.00;10.00
61873;PMS5003;49692;55.052;73.310;2022-10-18T00:38:54;9.75;8.50;6.00
61873;PMS5003;49692;55.052;73.310;2022-10-18T00:41:23;20.75;11.50;7.00
61873;PMS5003;49692;55.052;73.310;2022-10-18T00:43:58;15.00;12.75;7.00
61873;PMS5003;49692;55.052;73.310;2022-10-18T00:46:33;14.00;9.25;7.00
61873;PMS5003;49692;55.052;73.310;2022-10-18T00:49:05;21.75;15.75;10.00
61873;PMS5003;49692;55.052;73.310;2022-10-18T00:51:40;20.00;10.00;6.50
61873;PMS5003;49692;55.052;73.310;2022-10-18T00:54:10;18.75;12.00;8.00
61873;PMS5003;49692;55.052;73.310;2022-10-18T00:56:38;13.25;9.25;7.00
61873;PMS5003;49692;55.052;73.310;2022-10-18T00:59:06;10.50;10.00;7.00
61873;PMS5003;49692;55.052;73.310;2022-10-18T01:01:41;14.50;11.00;6.75
61873;PMS5003;49692;55.052;73.310;2022-10-18T01:04:09;14.50;11.75;8.00
61873;PMS5003;49692;55.052;73.310;2022-10-18T01:06:56;11.25;11.25;8.75
61873;PMS5003;49692;55.052;73.310;2022-10-18T01:09:32;9.50;6.50;6.00
61873;PMS5003;49692;55.052;73.310;2022-10-18T01:12:33;21.25;12.50;6.25
61873;PMS5003;49692;55.052;73.310;2022-10-18T01:15:23;20.75;18.00;11.50
61873;PMS5003;49692;55.052;73.310;2022-10-18T01:26:41;16.00;13.00;10.00
61873;PMS5003;49692;55.052;73.310;2022-10-18T01:32:21;15.25;14.00;9.00
61873;PMS5003;49692;55.052;73.310;2022-10-18T01:34:58;21.25;16.50;11.50
61873;PMS5003;49692;55.052;73.310;2022-10-18T01:37:30;21.75;17.50;10.00
61873;PMS5003;49692;55.052;73.310;2022-10-18T01:40:02;15.50;11.50;8.00
61873;PMS5003;49692;55.052;73.310;2022-10-18T01:42:40;19.50;15.50;9.50
61873;PMS5003;49692;55.052;73.310;2022-10-18T01:45:28;23.00;19.25;13.00
61873;PMS5003;49692;55.052;73.310;2022-10-18T01:48:02;17.00;12.50;10.00
61873;PMS5003;49692;55.052;73.310;2022-10-18T01:50:34;20.50;18.75;13.50
61873;PMS5003;49692;55.052;73.310;2022-10-18T01:53:03;22.00;18.00;10.50
61873;PMS5003;49692;55.052;73.310;2022-10-18T01:55:37;17.00;14.50;8.50
61873;PMS5003;49692;55.052;73.310;2022-10-18T01:58:25;25.25;18.00;12.00
61873;PMS5003;49692;55.052;73.310;2022-10-18T02:01:38;21.25;16.75;11.25
61873;PMS5003;49692;55.052;73.310;2022-10-18T02:04:06;24.75;18.50;13.50
61873;PMS5003;49692;55.052;73.310;2022-10-18T02:06:51;22.25;16.25;12.00
61873;PMS5003;49692;55.052;73.310;2022-10-18T02:09:36;23.25;19.25;10.00
61873;PMS5003;49692;55.052;73.310;2022-10-18T02:12:09;21.00;13.50;9.75
61873;PMS5003;49692;55.052;73.310;2022-10-18T02:14:51;19.75;16.75;10.00
61873;PMS5003;49692;55.052;73.310;2022-10-18T02:17:32;21.75;12.50;5.50
61873;PMS5003;49692;55.052;73.310;2022-10-18T02:20:01;18.75;15.50;12.00
61873;PMS5003;49692;55.052;73.310;2022-10-18T02:22:36;28.25;18.75;12.50
61873;PMS5003;49692;55.052;73.310;2022-10-18T02:25:08;26.25;21.75;13.00
61873;PMS5003;49692;55.052;73.310;2022-10-18T02:27:39;20.75;16.50;12.25
61873;PMS5003;49692;55.052;73.310;2022-10-18T02:30:06;28.75;20.50;15.25
61873;PMS5003;49692;55.052;73.310;2022-10-18T02:32:52;27.25;21.50;12.50
61873;PMS5003;49692;55.052;73.310;2022-10-18T02:35:36;17.00;12.50;9.00
61873;PMS5003;49692;55.052;73.310;2022-10-18T02:38:20;21.00;17.75;12.00
61873;PMS5003;49692;55.052;73.310;2022-10-18T02:40:55;25.50;18.50;12.25
61873;PMS5003;49692;55.052;73.310;2022-10-18T02:43:24;19.00;14.50;10.50
61873;PMS5003;49692;55.052;73.310;2022-10-18T02:46:02;27.25;18.75;12.75
61873;PMS5003;49692;55.052;73.310;2022-10-18T02:48:29;22.00;12.00;9.50
61873;PMS5003;49692;55.052;73.310;2022-10-18T02:50:55;19.50;18.25;12.75
61873;PMS5003;49692;55.052;73.310;2022-10-18T02:53:22;13.00;13.00;11.50
61873;PMS5003;49692;55.052;73.310;2022-10-18T02:55:49;22.00;16.25;10.00
61873;PMS5003;49692;55.052;73.310;2022-10-18T02:58:16;29.25;21.25;14.50
61873;PMS5003;49692;55.052;73.310;2022-10-18T03:00:43;22.00;19.00;12.00
61873;PMS5003;49692;55.052;73.310;2022-10-18T03:03:10;21.50;14.50;6.75
61873;PMS5003;49692;55.052;73.310;2022-10-18T03:05:38;22.00;17.00;11.00
61873;PMS5003;49692;55.052;73.310;2022-10-18T03:08:05;24.50;21.00;15.00
61873;PMS5003;49692;55.052;73.310;2022-10-18T03:10:32;21.50;17.00;11.00
61873;PMS5003;49692;55.052;73.310;2022-10-18T03:13:09;22.00;16.50;11.75
61873;PMS5003;49692;55.052;73.310;2022-10-18T03:15:36;25.00;18.75;13.75
61873;PMS5003;49692;55.052;73.310;2022-10-18T03:18:03;25.25;21.00;12.75
61873;PMS5003;49692;55.052;73.310;2022-10-18T03:20:41;18.75;12.50;8.00
61873;PMS5003;49692;55.052;73.310;2022-10-18T03:23:12;20.50;15.00;10.50
61873;PMS5003;49692;55.052;73.310;2022-10-18T03:25:39;18.00;11.50;7.00
61873;PMS5003;49692;55.052;73.310;2022-10-18T03:28:06;28.75;20.75;13.00
61873;PMS5003;49692;55.052;73.310;2022-10-18T03:30:33;19.00;14.00;8.00
61873;PMS5003;49692;55.052;73.310;2022-10-18T03:33:00;23.00;15.00;10.00
61873;PMS5003;49692;55.052;73.310;2022-10-18T03:35:31;20.50;17.50;10.00
61873;PMS5003;49692;55.052;73.310;2022-10-18T03:38:02;25.25;21.00;13.50
61873;PMS5003;49692;55.052;73.310;2022-10-18T03:40:30;25.00;17.50;12.00
61873;PMS5003;49692;55.052;73.310;2022-10-18T03:42:57;27.00;21.50;13.00
61873;PMS5003;49692;55.052;73.310;2022-10-18T03:45:24;27.50;22.00;14.00
61873;PMS5003;49692;55.052;73.310;2022-10-18T03:47:52;28.50;19.00;13.50
61873;PMS5003;49692;55.052;73.310;2022-10-18T03:50:27;20.75;17.00;10.00
61873;PMS5003;49692;55.052;73.310;2022-10-18T03:52:57;31.50;22.75;15.50
61873;PMS5003;49692;55.052;73.310;2022-10-18T03:55:24;21.50;15.50;10.50
61873;PMS5003;49692;55.052;73.310;2022-10-18T03:57:53;27.50;20.00;13.00
61873;PMS5003;49692;55.052;73.310;2022-10-18T04:00:19;19.50;14.00;9.00
61873;PMS5003;49692;55.052;73.310;2022-10-18T04:02:47;28.75;18.25;12.50
61873;PMS5003;49692;55.052;73.310;2022-10-18T04:05:19;32.00;20.00;12.75
61873;PMS5003;49692;55.052;73.310;2022-10-18T04:07:47;24.00;18.25;13.00
61873;PMS5003;49692;55.052;73.310;2022-10-18T04:10:14;31.00;25.50;15.00
61873;PMS5003;49692;55.052;73.310;2022-10-18T04:12:41;29.25;27.25;20.25
61873;PMS5003;49692;55.052;73.310;2022-10-18T04:15:09;37.50;32.00;22.25
61873;PMS5003;49692;55.052;73.310;2022-10-18T04:17:36;36.25;26.00;15.25
61873;PMS5003;49692;55.052;73.310;2022-10-18T04:20:06;34.00;31.00;21.75
61873;PMS5003;49692;55.052;73.310;2022-10-18T04:22:35;43.00;33.00;21.75
61873;PMS5003;49692;55.052;73.310;2022-10-18T04:25:05;33.25;24.50;17.50
61873;PMS5003;49692;55.052;73.310;2022-10-18T04:27:32;38.00;34.00;19.50
61873;PMS5003;49692;55.052;73.310;2022-10-18T04:30:03;46.25;36.00;22.75
61873;PMS5003;49692;55.052;73.310;2022-10-18T04:32:33;30.25;25.50;20.50
61873;PMS5003;49692;55.052;73.310;2022-10-18T04:35:02;32.75;20.25;13.50
61873;PMS5003;49692;55.052;73.310;2022-10-18T04:37:45;29.00;20.00;13.50
61873;PMS5003;49692;55.052;73.310;2022-10-18T04:40:11;28.50;25.25;15.50
61873;PMS5003;49692;55.052;73.310;2022-10-18T04:42:41;31.25;27.50;18.50
61873;PMS5003;49692;55.052;73.310;2022-10-18T04:45:11;41.75;29.75;20.75
61873;PMS5003;49692;55.052;73.310;2022-10-18T04:47:40;31.25;21.00;13.00
61873;PMS5003;49692;55.052;73.310;2022-10-18T04:50:07;30.75;21.25;15.00
61873;PMS5003;49692;55.052;73.310;2022-10-18T04:52:38;27.00;21.75;15.50
61873;PMS5003;49692;55.052;73.310;2022-10-18T04:55:05;38.75;25.50;15.25
61873;PMS5003;49692;55.052;73.310;2022-10-18T04:57:41;29.50;21.00;14.50
61873;PMS5003;49692;55.052;73.310;2022-10-18T05:00:15;26.25;24.75;14.00
61873;PMS5003;49692;55.052;73.310;2022-10-18T05:02:41;34.50;28.00;16.00
61873;PMS5003;49692;55.052;73.310;2022-10-18T05:05:10;32.25;26.00;18.00
61873;PMS5003;49692;55.052;73.310;2022-10-18T05:07:37;30.00;19.50;14.00
61873;PMS5003;49692;55.052;73.310;2022-10-18T05:10:04;22.50;19.50;12.75
61873;PMS5003;49692;55.052;73.310;2022-10-18T05:12:32;27.00;23.00;16.50
61873;PMS5003;49692;55.052;73.310;2022-10-18T05:15:11;31.00;24.00;16.00
61873;PMS5003;49692;55.052;73.310;2022-10-18T05:17:42;33.75;24.00;15.50
61873;PMS5003;49692;55.052;73.310;2022-10-18T05:20:19;26.50;15.25;10.75
61873;PMS5003;49692;55.052;73.310;2022-10-18T05:22:47;24.50;22.00;15.50
61873;PMS5003;49692;55.052;73.310;2022-10-18T05:25:18;21.50;15.25;11.75
61873;PMS5003;49692;55.052;73.310;2022-10-18T05:27:44;20.75;19.25;11.00
61873;PMS5003;49692;55.052;73.310;2022-10-18T05:30:15;22.00;17.50;12.00
61873;PMS5003;49692;55.052;73.310;2022-10-18T05:32:43;22.75;16.50;10.00
61873;PMS5003;49692;55.052;73.310;2022-10-18T05:35:10;22.25;16.50;13.00
61873;PMS5003;49692;55.052;73.310;2022-10-18T05:37:42;18.00;13.00;8.00
61873;PMS5003;49692;55.052;73.310;2022-10-18T05:40:09;20.00;15.00;10.00
61873;PMS5003;49692;55.052;73.310;2022-10-18T05:42:37;22.25;15.00;12.00
61873;PMS5003;49692;55.052;73.310;2022-10-18T05:45:04;18.00;14.00;7.50
61873;PMS5003;49692;55.052;73.310;2022-10-18T05:47:40;15.50;13.00;9.00
61873;PMS5003;49692;55.052;73.310;2022-10-18T05:50:22;12.25;9.75;4.50
61873;PMS5003;49692;55.052;73.310;2022-10-18T05:53:10;26.50;17.00;13.25
61873;PMS5003;49692;55.052;73.310;2022-10-18T05:55:37;17.50;15.50;9.50
61873;PMS5003;49692;55.052;73.310;2022-10-18T05:58:03;28.25;23.00;13.00
61873;PMS5003;49692;55.052;73.310;2022-10-18T06:00:30;30.75;21.00;14.50
61873;PMS5003;49692;55.052;73.310;2022-10-18T06:02:57;18.25;13.25;8.50
61873;PMS5003;49692;55.052;73.310;2022-10-18T06:05:24;27.00;20.00;15.00
61873;PMS5003;49692;55.052;73.310;2022-10-18T06:07:51;25.00;22.50;14.00
61873;PMS5003;49692;55.052;73.310;2022-10-18T06:10:20;26.50;21.25;13.00
61873;PMS5003;49692;55.052;73.310;2022-10-18T06:12:48;24.25;19.25;15.75
61873;PMS5003;49692;55.052;73.310;2022-10-18T06:15:24;21.75;14.00;10.00
61873;PMS5003;49692;55.052;73.310;2022-10-18T06:17:53;26.25;18.50;11.00
61873;PMS5003;49692;55.052;73.310;2022-10-18T06:20:24;23.25;15.00;7.50
61873;PMS5003;49692;55.052;73.310;2022-10-18T06:23:01;21.25;16.00;10.50
61873;PMS5003;49692;55.052;73.310;2022-10-18T06:25:29;12.00;9.50;6.00
61873;PMS5003;49692;55.052;73.310;2022-10-18T06:27:57;27.00;20.00;13.50
61873;PMS5003;49692;55.052;73.310;2022-10-18T06:30:25;29.75;25.25;13.75
61873;PMS5003;49692;55.052;73.310;2022-10-18T06:32:52;13.25;6.75;6.00
61873;PMS5003;49692;55.052;73.310;2022-10-18T06:35:20;30.25;25.00;16.00
61873;PMS5003;49692;55.052;73.310;2022-10-18T06:37:55;22.25;16.00;9.25
61873;PMS5003;49692;55.052;73.310;2022-10-18T06:40:22;31.75;25.00;14.50
61873;PMS5003;49692;55.052;73.310;2022-10-18T06:42:49;24.50;20.00;14.50
61873;PMS5003;49692;55.052;73.310;2022-10-18T06:45:16;29.75;23.50;11.50
61873;PMS5003;49692;55.052;73.310;2022-10-18T06:47:43;29.50;22.75;12.75
61873;PMS5003;49692;55.052;73.310;2022-10-18T06:50:10;31.25;19.50;10.75
61873;PMS5003;49692;55.052;73.310;2022-10-18T06:52:42;40.25;23.50;13.00
61873;PMS5003;49692;55.052;73.310;2022-10-18T06:55:23;28.75;24.25;16.00
61873;PMS5003;49692;55.052;73.310;2022-10-18T06:57:51;28.75;22.25;15.50
61873;PMS5003;49692;55.052;73.310;2022-10-18T07:00:27;32.25;23.25;15.50
61873;PMS5003;49692;55.052;73.310;2022-10-18T07:02:55;37.25;29.50;16.50
61873;PMS5003;49692;55.052;73.310;2022-10-18T07:05:23;32.00;26.25;16.50
61873;PMS5003;49692;55.052;73.310;2022-10-18T07:07:50;29.75;26.00;14.00
61873;PMS5003;49692;55.052;73.310;2022-10-18T07:10:17;29.00;26.00;17.00
61873;PMS5003;49692;55.052;73.310;2022-10-18T07:12:46;28.25;25.00;15.50
61873;PMS5003;49692;55.052;73.310;2022-10-18T07:15:15;34.25;26.75;17.00
61873;PMS5003;49692;55.052;73.310;2022-10-18T07:17:55;39.00;31.75;18.00
61873;PMS5003;49692;55.052;73.310;2022-10-18T07:20:23;26.25;21.75;14.50
61873;PMS5003;49692;55.052;73.310;2022-10-18T07:22:54;26.00;14.50;9.00
61873;PMS5003;49692;55.052;73.310;2022-10-18T07:25:26;29.00;24.25;14.00
61873;PMS5003;49692;55.052;73.310;2022-10-18T07:27:54;27.25;20.50;10.50
61873;PMS5003;49692;55.052;73.310;2022-10-18T07:30:22;28.50;21.25;12.00
61873;PMS5003;49692;55.052;73.310;2022-10-18T07:32:54;35.00;20.00;12.00
61873;PMS5003;49692;55.052;73.310;2022-10-18T07:35:20;33.50;25.75;16.25
61873;PMS5003;49692;55.052;73.310;2022-10-18T07:37:58;24.00;22.00;12.75
61873;PMS5003;49692;55.052;73.310;2022-10-18T07:40:25;27.25;21.25;13.00
61873;PMS5003;49692;55.052;73.310;2022-10-18T07:42:52;31.75;24.25;14.00
61873;PMS5003;49692;55.052;73.310;2022-10-18T07:45:28;18.75;11.75;5.00
61873;PMS5003;49692;55.052;73.310;2022-10-18T07:48:01;28.75;19.00;13.00
61873;PMS5003;49692;55.052;73.310;2022-10-18T07:50:28;33.25;25.00;15.75
61873;PMS5003;49692;55.052;73.310;2022-10-18T07:53:08;37.00;23.50;14.00
61873;PMS5003;49692;55.052;73.310;2022-10-18T07:55:40;25.25;16.00;9.25
61873;PMS5003;49692;55.052;73.310;2022-10-18T07:58:09;25.75;22.00;15.00
61873;PMS5003;49692;55.052;73.310;2022-10-18T08:00:41;32.75;26.00;15.50
61873;PMS5003;49692;55.052;73.310;2022-10-18T08:03:08;30.75;21.75;14.50
61873;PMS5003;49692;55.052;73.310;2022-10-18T08:05:55;14.00;14.00;10.75
61873;PMS5003;49692;55.052;73.310;2022-10-18T08:08:22;27.75;21.75;14.50
61873;PMS5003;49692;55.052;73.310;2022-10-18T08:10:53;27.00;18.00;12.00
61873;PMS5003;49692;55.052;73.310;2022-10-18T08:13:22;18.00;14.50;10.00
61873;PMS5003;49692;55.052;73.310;2022-10-18T08:16:18;11.50;11.00;7.00
61873;PMS5003;49692;55.052;73.310;2022-10-18T08:18:47;15.25;10.00;7.75
61873;PMS5003;49692;55.052;73.310;2022-10-18T08:21:14;25.00;18.00;11.00
61873;PMS5003;49692;55.052;73.310;2022-10-18T08:23:42;19.75;16.25;8.50
61873;PMS5003;49692;55.052;73.310;2022-10-18T08:26:15;6.75;4.00;3.00
61873;PMS5003;49692;55.052;73.310;2022-10-18T08:28:44;18.00;12.75;8.00
61873;PMS5003;49692;55.052;73.310;2022-10-18T08:31:13;18.75;10.00;7.00
61873;PMS5003;49692;55.052;73.310;2022-10-18T08:33:45;14.50;11.50;7.00
61873;PMS5003;49692;55.052;73.310;2022-10-18T08:36:22;17.00;16.75;9.75
61873;PMS5003;49692;55.052;73.310;2022-10-18T08:38:50;17.75;11.00;7.00
61873;PMS5003;49692;55.052;73.310;2022-10-18T08:41:21;18.25;15.00;9.50
61873;PMS5003;49692;55.052;73.310;2022-10-18T08:47:27;21.00;14.50;7.00
61873;PMS5003;49692;55.052;73.310;2022-10-18T08:50:19;16.00;15.50;11.00
61873;PMS5003;49692;55.052;73.310;2022-10-18T08:58:02;17.75;6.25;3.25
61873;PMS5003;49692;55.052;73.310;2022-10-18T09:00:49;20.50;13.75;9.50
61873;PMS5003;49692;55.052;73.310;2022-10-18T09:03:35;8.00;6.50;4.00
61873;PMS5003;49692;55.052;73.310;2022-10-18T09:09:04;14.50;10.00;7.00
61873;PMS5003;49692;55.052;73.310;2022-10-18T09:11:57;16.00;15.25;9.50
61873;PMS5003;49692;55.052;73.310;2022-10-18T09:22:38;11.75;9.00;6.75
61873;PMS5003;49692;55.052;73.310;2022-10-18T09:28:15;6.00;6.00;3.25
61873;PMS5003;49692;55.052;73.310;2022-10-18T09:33:51;18.50;13.50;10.00
61873;PMS5003;49692;55.052;73.310;2022-10-18T09:36:28;18.50;15.50;10.00
61873;PMS5003;49692;55.052;73.310;2022-10-18T09:39:03;19.50;16.25;9.50
61873;PMS5003;49692;55.052;73.310;2022-10-18T09:41:45;23.50;13.50;9.50
61873;PMS5003;49692;55.052;73.310;2022-10-18T09:44:17;23.25;15.50;10.00
61873;PMS5003;49692;55.052;73.310;2022-10-18T09:47:00;21.25;15.50;11.00
61873;PMS5003;49692;55.052;73.310;2022-10-18T09:49:39;19.50;15.50;9.00
61873;PMS5003;49692;55.052;73.310;2022-10-18T09:52:14;18.50;14.75;9.00
61873;PMS5003;49692;55.052;73.310;2022-10-18T09:54:56;17.25;12.75;8.00
61873;PMS5003;49692;55.052;73.310;2022-10-18T09:57:40;12.75;12.25;7.00
61873;PMS5003;49692;55.052;73.310;2022-10-18T10:00:17;18.50;15.75;10.00
61873;PMS5003;49692;55.052;73.310;2022-10-18T10:02:49;26.75;16.00;10.00
61873;PMS5003;49692;55.052;73.310;2022-10-18T10:05:16;18.25;14.50;6.25
61873;PMS5003;49692;55.052;73.310;2022-10-18T10:07:46;21.75;15.25;11.00
61873;PMS5003;49692;55.052;73.310;2022-10-18T10:10:20;18.50;15.50;11.00
61873;PMS5003;49692;55.052;73.310;2022-10-18T10:13:09;18.50;15.25;8.50
61873;PMS5003;49692;55.052;73.310;2022-10-18T10:15:54;28.75;17.75;10.25
61873;PMS5003;49692;55.052;73.310;2022-10-18T10:20:57;18.00;13.50;7.50
61873;PMS5003;49692;55.052;73.310;2022-10-18T10:23:29;15.25;9.50;6.75
61873;PMS5003;49692;55.052;73.310;2022-10-18T10:28:49;15.00;9.25;5.00
61873;PMS5003;49692;55.052;73.310;2022-10-18T10:36:47;26.00;18.25;11.75
61873;PMS5003;49692;55.052;73.310;2022-10-18T10:39:16;23.50;15.50;9.75
61873;PMS5003;49692;55.052;73.310;2022-10-18T10:41:47;15.00;13.50;9.50
61873;PMS5003;49692;55.052;73.310;2022-10-18T10:44:34;23.50;20.00;15.50
61873;PMS5003;49692;55.052;73.310;2022-10-18T10:47:03;29.75;20.00;13.50
61873;PMS5003;49692;55.052;73.310;2022-10-18T10:49:41;29.25;24.00;16.00
61873;PMS5003;49692;55.052;73.310;2022-10-18T10:52:17;34.50;25.00;18.00
61873;PMS5003;49692;55.052;73.310;2022-10-18T10:54:57;34.00;30.00;22.00
61873;PMS5003;49692;55.052;73.310;2022-10-18T10:57:31;40.50;29.75;20.50
61873;PMS5003;49692;55.052;73.310;2022-10-18T10:59:58;37.50;26.50;21.00
61873;PMS5003;49692;55.052;73.310;2022-10-18T11:02:32;27.00;22.00;15.50
61873;PMS5003;49692;55.052;73.310;2022-10-18T11:05:33;14.00;8.50;4.00
61873;PMS5003;49692;55.052;73.310;2022-10-18T11:08:00;16.75;10.00;10.00
61873;PMS5003;49692;55.052;73.310;2022-10-18T11:10:32;24.25;18.50;11.00
61873;PMS5003;49692;55.052;73.310;2022-10-18T11:15:45;32.75;22.00;14.50
61873;PMS5003;49692;55.052;73.310;2022-10-18T11:18:20;35.50;20.25;14.25
61873;PMS5003;49692;55.052;73.310;2022-10-18T11:23:48;27.50;19.50;11.25
61873;PMS5003;49692;55.052;73.310;2022-10-18T11:37:53;31.25;24.50;17.00
61873;PMS5003;49692;55.052;73.310;2022-10-18T11:48:50;28.25;20.00;15.75
61873;PMS5003;49692;55.052;73.310;2022-10-18T11:51:42;27.50;23.25;17.00
61873;PMS5003;49692;55.052;73.310;2022-10-18T12:00:10;35.75;29.50;18.50
61873;PMS5003;49692;55.052;73.310;2022-10-18T12:03:01;43.00;32.00;18.75
61873;PMS5003;49692;55.052;73.310;2022-10-18T12:05:47;41.00;31.33;23.33
61873;PMS5003;49692;55.052;73.310;2022-10-18T12:10:58;47.25;34.50;22.00
61873;PMS5003;49692;55.052;73.310;2022-10-18T12:13:38;38.50;30.50;18.50
61873;PMS5003;49692;55.052;73.310;2022-10-18T12:16:19;31.25;17.00;12.50
61873;PMS5003;49692;55.052;73.310;2022-10-18T12:19:01;27.00;18.00;13.00
61873;PMS5003;49692;55.052;73.310;2022-10-18T12:21:36;25.75;19.50;14.00
61873;PMS5003;49692;55.052;73.310;2022-10-18T12:24:06;22.25;18.75;11.25
61873;PMS5003;49692;55.052;73.310;2022-10-18T12:26:41;18.75;16.00;12.25
61873;PMS5003;49692;55.052;73.310;2022-10-18T12:29:13;20.00;16.00;10.50
61873;PMS5003;49692;55.052;73.310;2022-10-18T12:31:56;29.50;20.00;13.25
61873;PMS5003;49692;55.052;73.310;2022-10-18T12:34:52;31.75;21.75;14.50
61873;PMS5003;49692;55.052;73.310;2022-10-18T12:40:45;24.25;17.50;13.00
61873;PMS5003;49692;55.052;73.310;2022-10-18T12:43:24;22.75;17.00;13.00
61873;PMS5003;49692;55.052;73.310;2022-10-18T12:46:10;25.50;19.00;12.75
61873;PMS5003;49692;55.052;73.310;2022-10-18T12:48:40;19.25;15.50;12.50
61873;PMS5003;49692;55.052;73.310;2022-10-18T12:51:16;26.75;21.25;15.00
61873;PMS5003;49692;55.052;73.310;2022-10-18T12:53:51;39.75;30.25;20.00
61873;PMS5003;49692;55.052;73.310;2022-10-18T12:56:37;30.25;23.50;16.00
61873;PMS5003;49692;55.052;73.310;2022-10-18T13:09:29;43.25;32.00;21.00
61873;PMS5003;49692;55.052;73.310;2022-10-18T13:14:51;27.50;18.50;12.50
61873;PMS5003;49692;55.052;73.310;2022-10-18T13:17:31;18.50;15.00;6.50
61873;PMS5003;49692;55.052;73.310;2022-10-18T13:20:11;26.00;21.50;15.50
61873;PMS5003;49692;55.052;73.310;2022-10-18T13:31:42;19.00;15.50;10.00
61873;PMS5003;49692;55.052;73.310;2022-10-18T13:37:21;31.00;23.75;12.00
61873;PMS5003;49692;55.052;73.310;2022-10-18T13:39:51;35.50;22.00;16.00
61873;PMS5003;49692;55.052;73.310;2022-10-18T13:42:49;33.25;24.50;13.00
61873;PMS5003;49692;55.052;73.310;2022-10-18T13:45:51;40.75;37.50;21.25
61873;PMS5003;49692;55.052;73.310;2022-10-18T13:51:01;34.00;30.25;18.75
61873;PMS5003;49692;55.052;73.310;2022-10-18T14:07:39;30.00;21.00;12.25
61873;PMS5003;49692;55.052;73.310;2022-10-18T14:10:27;31.50;20.50;13.00
61873;PMS5003;49692;55.052;73.310;2022-10-18T14:13:07;28.50;22.75;16.00
61873;PMS5003;49692;55.052;73.310;2022-10-18T14:15:54;24.00;19.00;14.50
61873;PMS5003;49692;55.052;73.310;2022-10-18T14:18:30;26.25;18.00;13.00
61873;PMS5003;49692;55.052;73.310;2022-10-18T14:21:03;23.75;21.75;13.50
61873;PMS5003;49692;55.052;73.310;2022-10-18T14:23:42;30.50;22.50;15.25
61873;PMS5003;49692;55.052;73.310;2022-10-18T14:26:14;29.75;19.50;10.50
61873;PMS5003;49692;55.052;73.310;2022-10-18T14:28:43;27.75;26.75;15.75
61873;PMS5003;49692;55.052;73.310;2022-10-18T14:31:15;28.75;22.25;16.00
61873;PMS5003;49692;55.052;73.310;2022-10-18T14:33:46;33.25;24.50;17.00
61873;PMS5003;49692;55.052;73.310;2022-10-18T14:39:00;32.50;27.00;15.50
61873;PMS5003;49692;55.052;73.310;2022-10-18T14:41:34;32.25;24.00;16.00
61873;PMS5003;49692;55.052;73.310;2022-10-18T14:44:20;32.50;26.75;18.25
61873;PMS5003;49692;55.052;73.310;2022-10-18T14:47:16;39.25;33.75;20.50
61873;PMS5003;49692;55.052;73.310;2022-10-18T14:49:53;27.67;19.00;12.00
61873;PMS5003;49692;55.052;73.310;2022-10-18T14:52:23;45.25;34.25;21.00
61873;PMS5003;49692;55.052;73.310;2022-10-18T14:55:00;48.00;33.50;19.00
61873;PMS5003;49692;55.052;73.310;2022-10-18T14:57:37;40.00;25.50;20.50
61873;PMS5003;49692;55.052;73.310;2022-10-18T15:00:17;39.75;30.25;20.25
61873;PMS5003;49692;55.052;73.310;2022-10-18T15:03:04;34.50;25.00;12.50
61873;PMS5003;49692;55.052;73.310;2022-10-18T15:05:36;38.25;26.00;15.00
61873;PMS5003;49692;55.052;73.310;2022-10-18T15:08:16;36.25;29.00;17.50
61873;PMS5003;49692;55.052;73.310;2022-10-18T15:10:50;41.00;27.25;21.00
61873;PMS5003;49692;55.052;73.310;2022-10-18T15:13:20;30.75;20.25;13.50
61873;PMS5003;49692;55.052;73.310;2022-10-18T15:15:48;35.75;25.75;17.00
61873;PMS5003;49692;55.052;73.310;2022-10-18T15:18:20;35.00;31.00;19.00
61873;PMS5003;49692;55.052;73.310;2022-10-18T15:21:09;38.75;26.50;18.50
61873;PMS5003;49692;55.052;73.310;2022-10-18T15:23:48;34.25;27.25;19.50
61873;PMS5003;49692;55.052;73.310;2022-10-18T15:26:34;48.50;36.75;23.50
61873;PMS5003;49692;55.052;73.310;2022-10-18T15:29:14;43.75;34.00;19.00
61873;PMS5003;49692;55.052;73.310;2022-10-18T15:31:46;53.50;43.50;26.50
61873;PMS5003;49692;55.052;73.310;2022-10-18T15:34:22;49.25;38.75;22.50
61873;PMS5003;49692;55.052;73.310;2022-10-18T15:36:53;55.75;44.00;30.00
61873;PMS5003;49692;55.052;73.310;2022-10-18T15:39:31;62.20;47.40;30.00
61873;PMS5003;49692;55.052;73.310;2022-10-18T15:41:59;73.40;51.40;32.60
61873;PMS5003;49692;55.052;73.310;2022-10-18T15:44:32;79.80;54.60;33.80
61873;PMS5003;49692;55.052;73.310;2022-10-18T15:47:16;73.80;54.20;33.40
61873;PMS5003;49692;55.052;73.310;2022-10-18T15:49:59;84.40;60.00;39.00
61873;PMS5003;49692;55.052;73.310;2022-10-18T15:54:59;78.40;61.00;36.40
61873;PMS5003;49692;55.052;73.310;2022-10-18T15:57:28;87.80;63.60;40.80
61873;PMS5003;49692;55.052;73.310;2022-10-18T16:00:06;87.00;61.60;39.20
61873;PMS5003;49692;55.052;73.310;2022-10-18T16:02:43;96.40;70.20;41.60
61873;PMS5003;49692;55.052;73.310;2022-10-18T16:05:12;78.80;57.60;32.20
61873;PMS5003;49692;55.052;73.310;2022-10-18T16:07:52;86.60;62.20;41.00
61873;PMS5003;49692;55.052;73.310;2022-10-18T16:10:21;87.40;62.20;38.20
61873;PMS5003;49692;55.052;73.310;2022-10-18T16:12:48;77.80;60.60;39.00
61873;PMS5003;49692;55.052;73.310;2022-10-18T16:15:15;84.20;58.80;40.00
61873;PMS5003;49692;55.052;73.310;2022-10-18T16:17:42;88.00;64.00;40.00
61873;PMS5003;49692;55.052;73.310;2022-10-18T16:20:18;86.20;57.00;35.60
61873;PMS5003;49692;55.052;73.310;2022-10-18T16:22:48;81.00;58.40;37.80
61873;PMS5003;49692;55.052;73.310;2022-10-18T16:25:23;83.40;59.60;39.20
61873;PMS5003;49692;55.052;73.310;2022-10-18T16:28:00;79.20;54.00;37.20
61873;PMS5003;49692;55.052;73.310;2022-10-18T16:30:31;68.40;47.00;26.60